Time;durP1;ratioP1;P1;durP2;ratioP2;P2;SDS_P1;SDS_P2;PMS_P1;PMS_P2;Temp;Humidity;BMP_temperature;BMP_pressure;BME280_temperature;BME280_humidity;BME280_pressure;Samples;Min_cycle;Max_cycle;Signal;HPM_P1;HPM_P2
2021/03/10 00:00:23;;;;;;;244.37;103.27;;;;;;;-3.31;57.62;100696.55;2179583;80;27682;-66
2021/03/10 00:03:26;;;;;;;238.00;101.72;;;;;;;-3.34;57.80;100701.75;2178776;80;28072;-62
2021/03/10 00:06:28;;;;;;;228.60;101.87;;;;;;;-3.38;58.04;100699.52;2197321;78;32102;-65
2021/03/10 00:09:30;;;;;;;246.82;101.18;;;;;;;-3.40;58.26;100701.23;2179597;78;34046;-64
2021/03/10 00:12:32;;;;;;;249.80;100.87;;;;;;;-3.42;57.93;100699.92;2192567;80;30103;-61
2021/03/10 00:15:35;;;;;;;253.95;101.53;;;;;;;-3.45;57.90;100707.72;2178547;80;27676;-64
2021/03/10 00:18:37;;;;;;;217.05;91.32;;;;;;;-3.49;58.04;100702.43;2194940;80;28825;-63
2021/03/10 00:21:39;;;;;;;242.25;100.07;;;;;;;-3.53;58.29;100708.03;2189243;80;31131;-61
2021/03/10 00:24:41;;;;;;;224.92;95.30;;;;;;;-3.55;58.23;100713.67;2166383;80;33131;-64
2021/03/10 00:27:43;;;;;;;216.15;93.72;;;;;;;-3.60;58.26;100710.98;2167628;80;29162;-61
2021/03/10 00:30:45;;;;;;;216.27;91.47;;;;;;;-3.62;58.27;100708.77;2203946;80;27665;-60
2021/03/10 00:33:47;;;;;;;220.93;94.07;;;;;;;-3.66;58.25;100706.98;2202809;80;29125;-64
2021/03/10 00:36:49;;;;;;;219.40;92.15;;;;;;;-3.70;58.28;100707.79;2232820;78;31766;-66
2021/03/10 00:39:52;;;;;;;220.27;93.65;;;;;;;-3.72;58.39;100704.27;2212328;78;33106;-62
2021/03/10 00:42:54;;;;;;;212.30;90.20;;;;;;;-3.78;58.49;100698.92;2176329;80;29205;-63
2021/03/10 00:45:56;;;;;;;219.05;92.50;;;;;;;-3.82;58.61;100699.31;2202016;80;27724;-66
2021/03/10 00:48:59;;;;;;;221.53;97.08;;;;;;;-3.85;58.64;100705.80;2193529;80;29225;-64
2021/03/10 00:52:01;;;;;;;206.87;90.22;;;;;;;-3.90;58.64;100695.71;2189927;80;31828;-64
2021/03/10 00:55:04;;;;;;;212.55;91.05;;;;;;;-3.93;58.71;100694.34;2186193;80;33074;-63
2021/03/10 00:58:06;;;;;;;224.05;91.15;;;;;;;-3.98;58.80;100688.60;2167675;80;29120;-64
2021/03/10 01:01:09;;;;;;;207.90;90.75;;;;;;;-4.01;58.88;100685.06;2169909;80;27616;-64
2021/03/10 01:04:11;;;;;;;208.60;87.75;;;;;;;-4.04;58.88;100680.64;2202459;80;28802;-65
2021/03/10 01:07:13;;;;;;;215.95;88.90;;;;;;;-4.06;58.94;100682.79;2201261;80;31199;-61
2021/03/10 01:10:16;;;;;;;261.90;102.67;;;;;;;-4.08;59.12;100685.39;2183311;80;33627;-63
2021/03/10 01:13:18;;;;;;;241.57;97.72;;;;;;;-4.11;59.32;100684.03;2196175;80;29173;-63
2021/03/10 01:16:20;;;;;;;312.10;125.20;;;;;;;-4.13;59.39;100685.73;2185978;80;27711;-64
2021/03/10 01:19:22;;;;;;;293.02;115.42;;;;;;;-4.15;59.77;100683.52;2204393;78;29208;-64
2021/03/10 01:22:24;;;;;;;271.95;111.08;;;;;;;-4.18;59.90;100684.36;2172207;80;31147;-65
2021/03/10 01:25:26;;;;;;;277.15;114.88;;;;;;;-4.20;59.80;100683.45;2201092;80;34530;-62
2021/03/10 01:28:29;;;;;;;276.40;111.08;;;;;;;-4.21;59.81;100684.30;2168771;80;29220;-61
2021/03/10 01:31:30;;;;;;;277.00;111.35;;;;;;;-4.21;59.84;100682.09;2216664;78;27581;-64
2021/03/10 01:34:33;;;;;;;273.80;109.72;;;;;;;-4.23;59.75;100683.83;2225802;78;29793;-65
2021/03/10 01:37:35;;;;;;;264.17;105.75;;;;;;;-4.27;59.86;100679.85;2197995;80;31282;-64
2021/03/10 01:40:37;;;;;;;259.40;105.07;;;;;;;-4.27;59.81;100684.18;2170179;80;34647;-62
2021/03/10 01:43:40;;;;;;;247.85;102.90;;;;;;;-4.28;59.86;100685.94;2180975;79;30051;-62
2021/03/10 01:46:42;;;;;;;246.68;103.30;;;;;;;-4.29;59.91;100680.66;2183418;80;27710;-61
2021/03/10 01:49:44;;;;;;;246.22;99.95;;;;;;;-4.32;59.88;100681.50;2183292;80;28813;-62
2021/03/10 01:52:47;;;;;;;219.65;95.83;;;;;;;-4.33;59.98;100678.42;2203495;79;31154;-61
2021/03/10 01:55:50;;;;;;;229.75;98.82;;;;;;;-4.35;59.97;100670.11;2192958;79;34011;-65
2021/03/10 01:58:55;;;;;;;227.87;96.20;;;;;;;-4.36;60.01;100670.96;2192676;80;30024;-61
2021/03/10 02:01:57;;;;;;;234.20;92.15;;;;;;;-4.37;60.04;100666.58;2196593;80;27742;-63
2021/03/10 02:05:00;;;;;;;216.12;89.80;;;;;;;-4.39;60.10;100663.05;2180864;80;29149;-65
2021/03/10 02:08:29;;;;;;;224.75;93.42;;;;;;;-4.43;60.30;100665.61;2179579;80;31146;-62
2021/03/10 02:11:40;;;;;;;213.00;91.20;;;;;;;-4.45;60.46;100663.39;2197077;80;33192;-65
2021/03/10 02:15:09;;;;;;;218.40;88.95;;;;;;;-4.50;60.51;100666.38;2184059;80;30507;-61
2021/03/10 02:18:16;;;;;;;222.17;88.03;;;;;;;-4.51;60.48;100658.08;2181198;80;27664;-61
2021/03/10 02:21:27;;;;;;;212.45;91.42;;;;;;;-4.53;60.63;100657.16;2198447;80;28810;-63
2021/03/10 02:25:12;;;;;;;220.15;92.17;;;;;;;-4.55;61.12;100654.94;2198065;79;31224;-62
2021/03/10 02:28:14;;;;;;;220.00;87.03;;;;;;;-4.56;60.86;100661.02;2179520;80;33579;-62
2021/03/10 02:31:17;;;;;;;218.10;90.90;;;;;;;-4.59;60.98;100664.47;2208706;80;29160;-62
2021/03/10 02:34:20;;;;;;;211.40;90.72;;;;;;;-4.60;61.03;100663.13;2177141;80;27715;-61
2021/03/10 02:37:22;;;;;;;222.30;93.55;;;;;;;-4.63;60.91;100662.65;2201977;80;28128;-65
2021/03/10 02:40:26;;;;;;;207.70;89.52;;;;;;;-4.64;61.00;100662.63;2201608;80;32174;-62
2021/03/10 02:43:29;;;;;;;215.00;88.22;;;;;;;-4.64;61.08;100660.02;2166383;80;33121;-62
2021/03/10 02:46:31;;;;;;;201.42;87.35;;;;;;;-4.65;61.12;100659.56;2168459;80;29167;-66
2021/03/10 02:49:34;;;;;;;196.75;83.78;;;;;;;-4.66;61.42;100661.72;2202638;80;27664;-61
2021/03/10 02:52:36;;;;;;;202.43;85.92;;;;;;;-4.67;61.60;100663.44;2166116;80;28791;-63
2021/03/10 02:55:40;;;;;;;186.60;78.07;;;;;;;-4.70;61.46;100663.38;2199380;80;31554;-66
2021/03/10 02:58:42;;;;;;;190.03;81.47;;;;;;;-4.73;61.40;100668.57;2184926;80;34035;-64
2021/03/10 03:01:45;;;;;;;183.27;81.72;;;;;;;-4.75;61.44;100667.22;2167953;80;30130;-62
2021/03/10 03:04:47;;;;;;;188.75;79.17;;;;;;;-4.76;61.40;100670.68;2179492;80;27696;-64
2021/03/10 03:07:49;;;;;;;177.30;76.30;;;;;;;-4.79;61.46;100665.83;2177710;78;28814;-64
2021/03/10 03:10:53;;;;;;;169.17;72.35;;;;;;;-4.78;61.54;100671.52;2195709;80;31139;-63
2021/03/10 03:13:56;;;;;;;170.20;72.58;;;;;;;-4.82;61.53;100670.58;2184512;80;33593;-61
2021/03/10 03:16:59;;;;;;;168.05;71.75;;;;;;;-4.83;61.51;100666.61;2170844;80;29176;-62
2021/03/10 03:20:03;;;;;;;166.70;72.08;;;;;;;-4.87;61.49;100677.44;2201816;80;27602;-65
2021/03/10 03:23:06;;;;;;;171.47;71.92;;;;;;;-4.89;61.55;100669.59;2176545;80;29719;-65
2021/03/10 03:26:08;;;;;;;168.60;72.85;;;;;;;-4.91;61.54;100668.67;2200219;80;32065;-64
2021/03/10 03:29:12;;;;;;;163.45;70.10;;;;;;;-4.94;61.56;100674.23;2186685;80;35518;-63
2021/03/10 03:32:14;;;;;;;159.75;71.62;;;;;;;-4.95;61.61;100675.09;2194030;80;29181;-62
2021/03/10 03:35:17;;;;;;;166.15;70.85;;;;;;;-4.99;61.70;100672.84;2202008;78;27704;-66
2021/03/10 03:38:23;;;;;;;157.62;70.75;;;;;;;-5.01;61.73;100671.94;2199142;78;28957;-66
2021/03/10 03:41:25;;;;;;;153.42;68.07;;;;;;;-5.03;61.85;100680.16;2196833;80;31189;-66
2021/03/10 03:44:28;;;;;;;154.35;67.62;;;;;;;-5.05;61.98;100673.61;2180793;80;34066;-67
2021/03/10 03:47:30;;;;;;;152.12;67.42;;;;;;;-5.06;61.98;100670.98;2182159;80;30259;-66
2021/03/10 03:50:34;;;;;;;150.45;69.58;;;;;;;-5.07;61.91;100673.14;2166170;80;27718;-63
2021/03/10 03:53:36;;;;;;;157.40;68.45;;;;;;;-5.10;62.06;100663.92;2167699;80;28804;-61
2021/03/10 03:56:38;;;;;;;166.03;67.45;;;;;;;-5.13;61.92;100666.47;2194728;80;31575;-67
2021/03/10 03:59:40;;;;;;;166.10;69.87;;;;;;;-5.15;62.10;100667.76;2192151;80;33555;-63
2021/03/10 04:02:42;;;;;;;155.80;68.10;;;;;;;-5.16;62.27;100667.70;2165710;80;29440;-69
2021/03/10 04:05:44;;;;;;;161.45;70.65;;;;;;;-5.19;62.30;100668.53;2200319;80;27717;-63
2021/03/10 04:08:47;;;;;;;171.15;72.60;;;;;;;-5.21;62.25;100665.88;2191910;80;28820;-66
2021/03/10 04:11:49;;;;;;;159.97;69.92;;;;;;;-5.22;62.22;100671.08;2182671;80;31099;-68
2021/03/10 04:14:52;;;;;;;153.15;69.67;;;;;;;-5.24;62.20;100678.00;2189221;78;33994;-64
2021/03/10 04:17:54;;;;;;;154.12;68.30;;;;;;;-5.29;62.23;100672.69;2190689;80;31484;-62
2021/03/10 04:20:57;;;;;;;162.27;72.00;;;;;;;-5.29;62.31;100683.56;2166708;80;27775;-69
2021/03/10 04:24:04;;;;;;;148.90;69.72;;;;;;;-5.32;62.28;100678.27;2193106;78;29263;-63
2021/03/10 04:27:06;;;;;;;155.18;69.58;;;;;;;-5.34;62.35;100676.91;2170933;78;31134;-63
2021/03/10 04:30:12;;;;;;;165.62;71.82;;;;;;;-5.35;62.23;100680.38;2165812;80;34517;-69
2021/03/10 04:33:14;;;;;;;170.43;73.90;;;;;;;-5.37;62.40;100675.54;2165505;82;29173;-68
2021/03/10 04:36:16;;;;;;;190.90;85.22;;;;;;;-5.39;62.39;100684.66;2166282;80;27725;-68
2021/03/10 04:39:19;;;;;;;190.97;79.15;;;;;;;-5.41;62.75;100686.34;2165082;82;28812;-61
2021/03/10 04:42:21;;;;;;;184.32;80.72;;;;;;;-5.44;62.82;100686.72;2165611;81;33457;-68
2021/03/10 04:45:23;;;;;;;184.72;78.60;;;;;;;-5.44;62.78;100694.11;2167108;80;33127;-64
2021/03/10 04:48:25;;;;;;;182.82;77.50;;;;;;;-5.45;62.77;100699.31;2129196;82;29303;-62
2021/03/10 04:51:27;;;;;;;187.65;85.57;;;;;;;-5.46;62.74;100693.22;2194102;80;27690;-69
2021/03/10 04:54:29;;;;;;;159.97;74.15;;;;;;;-5.47;63.07;100696.68;2178629;80;29780;-67
2021/03/10 04:57:31;;;;;;;175.40;78.72;;;;;;;-5.50;62.83;100694.86;2160065;82;31147;-69
2021/03/10 05:00:34;;;;;;;174.23;78.10;;;;;;;-5.51;62.93;100692.23;2208357;80;34534;-67
2021/03/10 05:03:35;;;;;;;184.75;77.65;;;;;;;-5.53;63.26;100700.00;2208609;80;29223;-63
2021/03/10 05:06:37;;;;;;;169.93;73.70;;;;;;;-5.54;63.26;100702.16;2188656;80;27751;-62
2021/03/10 05:09:40;;;;;;;176.40;76.72;;;;;;;-5.54;63.13;100698.67;2161634;82;28805;-69
2021/03/10 05:12:42;;;;;;;167.03;75.60;;;;;;;-5.54;63.08;100704.77;2208210;80;31132;-69
2021/03/10 05:15:44;;;;;;;168.97;74.05;;;;;;;-5.56;63.10;100693.84;2203515;80;33063;-61
2021/03/10 05:18:46;;;;;;;167.55;73.02;;;;;;;-5.55;63.13;100695.61;2191181;80;29176;-64
2021/03/10 05:21:48;;;;;;;177.50;77.97;;;;;;;-5.56;63.15;100702.57;2159937;82;28003;-65
2021/03/10 05:24:50;;;;;;;166.28;74.30;;;;;;;-5.56;63.24;100701.27;2179735;80;28803;-61
2021/03/10 05:27:52;;;;;;;172.57;74.60;;;;;;;-5.55;63.29;100699.12;2175160;80;31120;-63
2021/03/10 05:30:54;;;;;;;182.62;77.35;;;;;;;-5.53;63.33;100703.05;2208511;80;33140;-67
2021/03/10 05:33:57;;;;;;;178.05;80.38;;;;;;;-5.52;63.38;100708.73;2165440;82;30480;-64
2021/03/10 05:36:59;;;;;;;181.00;82.27;;;;;;;-5.52;63.37;100707.43;2202033;80;27891;-61
2021/03/10 05:40:01;;;;;;;192.25;80.65;;;;;;;-5.50;63.44;100713.13;2206700;80;28800;-71
2021/03/10 05:43:03;;;;;;;185.67;79.70;;;;;;;-5.45;63.54;100711.06;2186080;80;31140;-65
2021/03/10 05:46:05;;;;;;;184.87;80.32;;;;;;;-5.44;63.55;100709.77;2210797;80;33335;-62
2021/03/10 05:49:08;;;;;;;184.37;79.77;;;;;;;-5.39;63.64;100709.91;2250731;78;29095;-68
2021/03/10 05:52:12;;;;;;;187.30;85.70;;;;;;;-5.35;63.66;100719.54;2217341;80;27578;-62
2021/03/10 05:55:16;;;;;;;197.35;89.55;;;;;;;-5.29;63.71;100716.21;2118524;83;29700;-70
2021/03/10 05:58:19;;;;;;;220.85;94.65;;;;;;;-5.22;63.78;100719.39;2067540;84;31160;-68
2021/03/10 06:01:21;;;;;;;248.50;103.50;;;;;;;-5.15;64.11;100726.53;2083663;85;33133;-69
2021/03/10 06:04:24;;;;;;;225.35;100.55;;;;;;;-5.10;64.50;100727.48;2087495;83;29981;-67
2021/03/10 06:07:27;;;;;;;242.37;98.87;;;;;;;-5.02;64.44;100729.39;2120966;83;27930;-64
2021/03/10 06:10:47;;;;;;;243.60;101.45;;;;;;;-4.93;64.47;100725.65;2086852;83;28745;-69
2021/03/10 06:13:50;;;;;;;235.25;98.55;;;;;;;-4.84;64.75;100728.87;2085465;85;32297;-70
2021/03/10 06:17:09;;;;;;;223.45;98.97;;;;;;;-4.73;64.92;100731.30;2112102;83;33136;-62
2021/03/10 06:20:27;;;;;;;218.27;95.47;;;;;;;-4.61;65.00;100732.84;2117805;83;29235;-67
2021/03/10 06:23:29;;;;;;;225.65;96.35;;;;;;;-4.47;65.06;100740.06;2121218;83;28177;-63
2021/03/10 06:26:34;;;;;;;213.80;95.62;;;;;;;-4.31;65.18;100743.86;2109503;83;31141;-71
2021/03/10 06:29:37;;;;;;;200.20;90.47;;;;;;;-4.10;65.17;100744.66;2121718;83;31342;-64
2021/03/10 06:32:42;;;;;;;192.37;87.10;;;;;;;-3.82;65.13;100744.71;2120995;83;33271;-69
2021/03/10 06:35:44;;;;;;;174.60;77.82;;;;;;;-3.53;65.08;100749.93;2118748;83;29176;-71
2021/03/10 06:38:51;;;;;;;174.57;79.50;;;;;;;-3.25;65.10;100748.61;2106366;83;27752;-69
2021/03/10 06:41:54;;;;;;;165.92;75.87;;;;;;;-2.93;64.88;100749.91;2085937;83;29744;-70
2021/03/10 06:44:57;;;;;;;173.38;77.67;;;;;;;-2.61;64.74;100749.42;2079751;85;31355;-68
2021/03/10 06:48:02;;;;;;;160.50;73.75;;;;;;;-2.30;64.75;100753.70;2060111;85;33112;-65
2021/03/10 06:51:14;;;;;;;162.92;76.12;;;;;;;-1.97;64.37;100752.68;2067424;82;29154;-68
2021/03/10 06:54:16;;;;;;;173.45;75.08;;;;;;;-1.71;63.81;100753.80;2143238;81;27700;-67
2021/03/10 06:57:19;;;;;;;175.82;76.60;;;;;;;-1.44;63.76;100761.44;2178657;80;30154;-66
2021/03/10 07:00:24;;;;;;;168.47;77.30;;;;;;;-1.15;63.63;100757.25;2177372;81;31568;-63
2021/03/10 07:03:29;;;;;;;176.40;80.77;;;;;;;-0.84;63.38;100764.88;2139011;83;33137;-63
2021/03/10 07:06:33;;;;;;;177.27;77.95;;;;;;;-0.55;63.08;100757.53;2161426;81;29173;-68
2021/03/10 07:09:37;;;;;;;171.02;80.57;;;;;;;-0.29;62.84;100760.66;2131606;83;27845;-67
2021/03/10 07:12:43;;;;;;;179.80;82.70;;;;;;;0.01;62.78;100756.33;2178343;81;29775;-65
2021/03/10 07:15:44;;;;;;;;;;;;;;;0.33;62.05;100756.81;2180854;81;31050;-65
2021/03/10 07:18:48;;;;;;;166.12;80.40;;;;;;;0.64;62.11;100755.89;2149794;81;33068;-68
2021/03/10 07:21:55;;;;;;;174.60;82.95;;;;;;;0.93;61.76;100761.53;2125932;81;30347;-69
2021/03/10 07:25:15;;;;;;;169.97;83.75;;;;;;;1.21;61.56;100759.27;2170520;81;27698;-64
2021/03/10 07:28:26;;;;;;;172.28;83.10;;;;;;;1.51;61.19;100761.34;2159758;81;28890;-68
2021/03/10 07:31:29;;;;;;;173.13;82.82;;;;;;;1.83;60.73;100760.72;2172688;81;31163;-68
2021/03/10 07:34:31;;;;;;;164.25;81.35;;;;;;;2.13;60.44;100759.64;2164706;81;33556;-63
2021/03/10 07:37:35;;;;;;;156.47;79.72;;;;;;;2.42;59.78;100762.48;2154948;81;31431;-66
2021/03/10 07:40:39;;;;;;;;;;;;;;;2.65;59.45;100764.06;2155108;80;27710;-66
2021/03/10 07:43:48;;;;;;;169.87;79.20;;;;;;;2.90;59.17;100763.80;2175989;80;28822;-64
2021/03/10 07:47:13;;;;;;;153.50;77.95;;;;;;;3.12;58.77;100768.87;2182093;80;31158;-68
2021/03/10 07:50:15;;;;;;;150.38;74.67;;;;;;;3.29;58.16;100768.23;2054756;86;33193;-67
2021/03/10 07:53:17;;;;;;;151.90;77.72;;;;;;;3.58;58.17;100767.44;2054875;86;29157;-66
2021/03/10 07:56:32;;;;;;;150.07;77.70;;;;;;;3.90;57.65;100762.14;2022030;86;27782;-67
2021/03/10 07:59:37;;;;;;;161.25;78.70;;;;;;;4.50;56.64;100771.81;2027873;85;28917;-66
2021/03/10 08:02:49;;;;;;;152.82;77.92;;;;;;;4.50;56.64;100771.81;2055434;86;31173;-65
2021/03/10 08:06:01;;;;;;;146.32;78.55;;;;;;;4.71;56.12;100773.67;1999665;88;34381;-66
2021/03/10 08:09:04;;;;;;;147.43;78.83;;;;;;;4.84;55.77;100769.89;2054949;86;30289;-67
2021/03/10 08:12:12;;;;;;;146.75;75.60;;;;;;;4.99;55.53;100765.20;2053221;86;36212;-69
2021/03/10 08:15:23;;;;;;;144.75;76.15;;;;;;;5.23;55.14;100766.50;2033001;86;29134;-66
2021/03/10 08:18:39;;;;;;;139.37;74.60;;;;;;;5.51;54.73;100765.06;2214368;79;27694;-68
2021/03/10 08:21:48;;;;;;;136.97;68.78;;;;;;;5.60;54.05;100768.84;2189538;81;28192;-67
2021/03/10 08:24:53;;;;;;;119.55;62.20;;;;;;;5.73;54.00;100775.63;2211284;79;28820;-68
2021/03/10 08:27:58;;;;;;;133.03;69.47;;;;;;;5.82;53.47;100769.70;2227712;79;32144;-68
2021/03/10 08:31:05;;;;;;;133.87;68.97;;;;;;;5.85;53.49;100766.98;2228419;79;33603;-67
2021/03/10 08:34:10;;;;;;;139.65;70.37;;;;;;;5.80;53.17;100770.19;2228686;79;28968;-67
2021/03/10 08:37:13;;;;;;;101.90;52.10;;;;;;;5.76;52.90;100767.59;2228662;79;27843;-66
2021/03/10 08:40:19;;;;;;;136.72;69.70;;;;;;;5.67;52.74;100757.61;2228491;79;28812;-66
2021/03/10 08:43:21;;;;;;;141.15;73.35;;;;;;;5.56;52.64;100764.05;2228585;79;32060;-67
2021/03/10 08:46:23;;;;;;;124.47;66.42;;;;;;;5.50;52.90;100766.83;2229070;79;33108;-67
2021/03/10 08:49:29;;;;;;;127.42;67.80;;;;;;;5.42;52.57;100766.13;2228468;79;29823;-67
2021/03/10 08:52:32;;;;;;;114.25;61.00;;;;;;;5.37;52.15;100758.70;2228552;79;27756;-67
2021/03/10 08:55:34;;;;;;;120.90;58.98;;;;;;;5.28;51.87;100763.74;2228613;79;28826;-68
2021/03/10 08:58:37;;;;;;;109.80;58.05;;;;;;;5.25;51.84;100767.78;2228680;79;31135;-66
2021/03/10 09:01:50;;;;;;;103.78;54.85;;;;;;;5.22;51.87;100762.09;2228557;79;33293;-67
2021/03/10 09:04:53;;;;;;;123.13;62.05;;;;;;;5.21;51.52;100751.04;2228493;79;28857;-67
2021/03/10 09:07:55;;;;;;;123.18;61.40;;;;;;;5.22;51.37;100758.11;2194643;79;27720;-67
2021/03/10 09:10:58;;;;;;;111.45;58.48;;;;;;;5.22;51.64;100758.11;2228626;79;28812;-67
2021/03/10 09:14:00;;;;;;;111.80;56.48;;;;;;;5.27;51.69;100758.89;2228394;79;32115;-67
2021/03/10 09:17:03;;;;;;;93.80;51.08;;;;;;;5.33;51.05;100757.89;2224372;79;33104;-67
2021/03/10 09:20:13;;;;;;;94.67;52.70;;;;;;;5.41;49.88;100759.06;2217767;80;28919;-67
2021/03/10 09:23:27;;;;;;;109.95;58.33;;;;;;;5.53;50.79;100756.61;2216380;80;28208;-67
2021/03/10 09:26:40;;;;;;;92.25;48.42;;;;;;;5.63;50.71;100756.34;2217425;80;29812;-67
2021/03/10 09:29:43;;;;;;;94.47;53.02;;;;;;;5.68;49.75;100760.26;2217232;80;31241;-67
2021/03/10 09:32:47;;;;;;;102.70;52.08;;;;;;;5.74;49.56;100755.26;2217103;80;33553;-65
2021/03/10 09:36:01;;;;;;;93.87;48.90;;;;;;;5.76;48.72;100753.44;2217240;80;29743;-66
2021/03/10 09:39:08;;;;;;;88.22;46.00;;;;;;;5.80;47.90;100755.09;2217301;80;27750;-65
2021/03/10 09:42:10;;;;;;;84.15;45.20;;;;;;;5.75;47.18;100757.00;2217034;80;28836;-66
2021/03/10 09:45:25;;;;;;;81.30;42.67;;;;;;;5.79;48.36;100754.70;2217113;80;31109;-66
2021/03/10 09:48:41;;;;;;;80.07;42.47;;;;;;;5.85;48.02;100758.54;2186390;80;34033;-65
2021/03/10 09:51:48;;;;;;;78.50;41.60;;;;;;;5.90;47.51;100763.74;2178407;81;29739;-66
2021/03/10 09:54:53;;;;;;;71.90;39.78;;;;;;;5.97;46.76;100764.47;2178532;81;27725;-66
2021/03/10 09:58:05;;;;;;;79.03;43.87;;;;;;;6.00;46.83;100770.66;2193283;80;28901;-66
2021/03/10 10:01:07;;;;;;;116.90;35.23;;;;;;;6.08;46.87;100767.81;2177757;81;31315;-66
2021/03/10 10:04:13;;;;;;;59.42;22.32;;;;;;;6.12;45.96;100768.61;2178280;81;33169;-65
2021/03/10 10:07:15;;;;;;;49.03;25.95;;;;;;;6.10;43.23;100771.75;2178546;81;29308;-67
2021/03/10 10:10:18;;;;;;;43.28;24.50;;;;;;;6.08;44.12;100765.16;2184135;80;27685;-66
2021/03/10 10:13:20;;;;;;;47.23;24.45;;;;;;;6.06;43.00;100773.63;2177432;80;28804;-57
2021/03/10 10:16:23;;;;;;;35.30;18.37;;;;;;;6.08;44.15;100773.14;2191014;80;31161;-58
2021/03/10 10:19:25;;;;;;;32.10;17.75;;;;;;;6.19;43.91;100765.77;2206448;80;34476;-57
2021/03/10 10:22:28;;;;;;;29.48;15.40;;;;;;;6.25;42.93;100754.09;2177610;80;28858;-57
2021/03/10 10:25:33;;;;;;;24.98;13.75;;;;;;;6.19;41.60;100744.95;2199547;80;27665;-63
2021/03/10 10:28:35;;;;;;;33.33;17.27;;;;;;;6.20;41.77;100750.69;2206698;80;28826;-60
2021/03/10 10:31:37;;;;;;;26.07;14.95;;;;;;;6.18;41.63;100750.71;2196868;80;31139;-61
2021/03/10 10:34:39;;;;;;;28.92;16.65;;;;;;;6.08;41.07;100750.05;2197664;80;33487;-71
2021/03/10 10:37:42;;;;;;;32.73;17.87;;;;;;;6.04;41.53;100757.68;2197126;80;28911;-65
2021/03/10 10:40:44;;;;;;;34.35;19.20;;;;;;;6.07;41.93;100762.08;2188476;80;27693;-66
2021/03/10 10:43:46;;;;;;;41.02;19.92;;;;;;;6.14;41.97;100765.46;2196125;80;28824;-69
2021/03/10 10:46:48;;;;;;;42.25;22.58;;;;;;;6.17;42.08;100769.38;2209825;80;31138;-66
2021/03/10 10:49:50;;;;;;;32.93;18.50;;;;;;;6.21;41.42;100765.72;2196352;80;33106;-67
2021/03/10 10:52:53;;;;;;;31.42;17.62;;;;;;;6.27;41.81;100772.70;2157739;81;28850;-69
2021/03/10 10:55:55;;;;;;;30.30;17.48;;;;;;;6.30;41.12;100776.16;2111222;83;27853;-68
2021/03/10 10:58:58;;;;;;;31.42;17.60;;;;;;;6.33;40.90;100772.53;2137004;82;29785;-68
2021/03/10 11:02:00;;;;;;;31.73;15.58;;;;;;;6.30;39.78;100774.82;2128840;82;31154;-70
2021/03/10 11:05:03;;;;;;;33.92;17.62;;;;;;;6.25;38.74;100771.39;2124752;82;33072;-71
2021/03/10 11:08:05;;;;;;;27.30;17.10;;;;;;;6.18;39.22;100769.80;2131209;82;28866;-70
2021/03/10 11:11:08;;;;;;;27.07;15.05;;;;;;;6.13;38.87;100763.71;2130916;82;27748;-67
2021/03/10 11:14:10;;;;;;;29.20;15.88;;;;;;;6.04;38.26;100769.65;2138248;82;29713;-69
2021/03/10 11:17:12;;;;;;;27.35;16.00;;;;;;;6.02;39.71;100766.62;2135767;81;32213;-69
2021/03/10 11:20:15;;;;;;;26.42;15.38;;;;;;;6.03;39.46;100764.38;2152784;82;33592;-68
2021/03/10 11:23:17;;;;;;;26.42;15.00;;;;;;;6.00;39.29;100763.11;2148609;81;29797;-67
2021/03/10 11:26:20;;;;;;;30.37;15.38;;;;;;;5.98;38.63;100764.89;2153497;81;27742;-66
2021/03/10 11:29:22;;;;;;;26.73;15.32;;;;;;;5.96;38.92;100764.09;2157265;81;28831;-68
2021/03/10 11:32:26;;;;;;;30.10;18.00;;;;;;;5.95;37.97;100763.66;2151471;81;32076;-67
2021/03/10 11:35:34;;;;;;;29.32;17.45;;;;;;;5.94;38.82;100758.78;2147375;82;28335;-68
2021/03/10 11:38:39;;;;;;;30.85;17.15;;;;;;;6.00;39.45;100762.67;2157583;82;28898;-68
2021/03/10 11:41:44;;;;;;;32.95;18.90;;;;;;;6.08;38.86;100758.50;2115303;82;27745;-67
2021/03/10 11:44:46;;;;;;;31.95;18.42;;;;;;;6.14;39.25;100751.69;2158275;82;29728;-67
2021/03/10 11:47:49;;;;;;;35.10;18.57;;;;;;;6.17;39.06;100752.95;2149400;81;31149;-65
2021/03/10 11:50:51;;;;;;;28.38;16.93;;;;;;;6.27;39.43;100750.95;2157396;82;34448;-67
2021/03/10 11:53:53;;;;;;;33.15;18.40;;;;;;;6.32;38.59;100747.73;2155536;81;28795;-71
2021/03/10 11:57:00;;;;;;;24.37;13.78;;;;;;;6.36;37.74;100748.52;2156494;81;28254;-67
2021/03/10 12:00:05;;;;;;;22.30;14.20;;;;;;;6.32;37.11;100734.86;2157009;82;28821;-68
2021/03/10 12:03:08;;;;;;;25.37;14.95;;;;;;;6.27;37.36;100739.45;2148661;82;32082;-67
2021/03/10 12:06:10;;;;;;;28.90;15.05;;;;;;;6.23;37.79;100734.19;2108866;82;33121;-66
2021/03/10 12:09:13;;;;;;;27.35;13.68;;;;;;;6.25;37.98;100735.47;2159136;81;28866;-75
2021/03/10 12:12:15;;;;;;;24.10;13.30;;;;;;;6.28;38.29;100731.41;2139394;81;27743;-67
2021/03/10 12:15:18;;;;;;;27.27;13.45;;;;;;;6.28;36.94;100723.90;2156282;81;29861;-67
2021/03/10 12:18:20;;;;;;;21.93;13.93;;;;;;;6.23;36.72;100708.03;2109037;82;31233;-67
2021/03/10 12:21:23;;;;;;;22.87;11.95;;;;;;;6.17;35.18;100700.22;2158261;79;33117;-67
2021/03/10 12:24:25;;;;;;;22.42;12.93;;;;;;;6.09;35.32;100697.75;2162457;81;28842;-67
2021/03/10 12:27:28;;;;;;;29.18;14.95;;;;;;;6.04;35.76;100692.52;2204358;80;27669;-69
2021/03/10 12:30:30;;;;;;;29.95;15.78;;;;;;;6.05;36.10;100700.05;2198115;78;28862;-67
2021/03/10 12:33:35;;;;;;;23.12;15.70;;;;;;;6.02;35.34;100694.81;2213370;78;31132;-68
2021/03/10 12:36:37;;;;;;;23.05;14.80;;;;;;;5.97;36.03;100692.23;2200930;78;33072;-68
2021/03/10 12:39:42;;;;;;;25.30;16.48;;;;;;;5.93;35.68;100685.23;2197394;80;28789;-68
2021/03/10 12:42:44;;;;;;;22.70;14.38;;;;;;;5.90;36.17;100690.18;2185104;80;28241;-68
2021/03/10 12:45:47;;;;;;;25.40;15.68;;;;;;;5.91;35.64;100687.05;2179845;80;28837;-68
2021/03/10 12:48:49;;;;;;;32.42;15.40;;;;;;;5.87;35.44;100679.61;2182403;80;30938;-68
2021/03/10 12:51:51;;;;;;;35.10;17.10;;;;;;;5.82;35.45;100673.52;2185384;80;33172;-68
2021/03/10 12:54:54;;;;;;;27.32;15.98;;;;;;;5.79;35.32;100670.96;2152675;79;28926;-70
2021/03/10 12:57:56;;;;;;;25.02;14.63;;;;;;;5.79;35.67;100668.30;2207221;79;28394;-68
2021/03/10 13:00:58;;;;;;;29.85;16.67;;;;;;;5.78;35.87;100670.55;2208224;78;29809;-65
2021/03/10 13:04:01;;;;;;;27.77;14.65;;;;;;;5.77;35.36;100671.45;2203861;78;31149;-68
2021/03/10 13:07:03;;;;;;;26.97;14.95;;;;;;;5.75;35.00;100664.82;2192354;80;32714;-66
2021/03/10 13:10:08;;;;;;;28.65;15.03;;;;;;;5.80;35.45;100673.15;2168669;81;28849;-67
2021/03/10 13:13:10;;;;;;;23.75;10.82;;;;;;;5.83;35.86;100665.97;2205675;78;33513;-67
2021/03/10 13:16:12;;;;;;;29.98;16.82;;;;;;;5.87;35.95;100666.79;2200589;79;28823;-70
2021/03/10 13:19:14;;;;;;;34.67;17.20;;;;;;;5.92;36.16;100666.20;2196725;79;31203;-70
2021/03/10 13:22:16;;;;;;;33.30;15.48;;;;;;;5.96;35.78;100662.56;2177282;79;33123;-73
2021/03/10 13:25:19;;;;;;;34.55;15.83;;;;;;;5.99;36.07;100660.27;2177150;79;29164;-68
2021/03/10 13:28:21;;;;;;;30.80;16.48;;;;;;;6.03;35.36;100661.98;2180830;79;27718;-69
2021/03/10 13:31:23;;;;;;;29.95;15.48;;;;;;;6.05;35.96;100662.82;2184582;79;28828;-71
2021/03/10 13:34:26;;;;;;;27.87;16.10;;;;;;;6.04;34.30;100659.74;2187669;79;31259;-66
2021/03/10 13:37:28;;;;;;;25.45;15.55;;;;;;;6.01;34.64;100658.05;2168234;80;33129;-69
2021/03/10 13:40:31;;;;;;;26.25;15.88;;;;;;;6.02;35.89;100658.91;2161768;80;31554;-65
2021/03/10 13:43:34;;;;;;;32.35;16.85;;;;;;;6.04;35.78;100659.27;2147240;82;27866;-67
2021/03/10 13:46:36;;;;;;;32.33;18.75;;;;;;;6.02;35.51;100662.45;2148473;82;28910;-65
2021/03/10 13:49:38;;;;;;;24.82;14.83;;;;;;;6.00;35.40;100656.30;2180545;80;31687;-62
2021/03/10 13:52:42;;;;;;;26.77;14.75;;;;;;;5.96;35.30;100657.24;2172748;80;33134;-62